sensor_id;sensor_type;location;lat;lon;timestamp;P1;durP1;ratioP1;P2;durP2;ratioP2
11039;SDS011;5573;49.592;8.662;2023-04-01T00:02:04;259.67;;;245.63;;
11039;SDS011;5573;49.592;8.662;2023-04-01T00:04:32;277.23;;;262.20;;
11039;SDS011;5573;49.592;8.662;2023-04-01T00:07:00;280.50;;;264.90;;
11039;SDS011;5573;49.592;8.662;2023-04-01T00:09:28;282.87;;;267.47;;
11039;SDS011;5573;49.592;8.662;2023-04-01T00:11:56;264.70;;;250.60;;
11039;SDS011;5573;49.592;8.662;2023-04-01T00:14:24;266.67;;;252.07;;
11039;SDS011;5573;49.592;8.662;2023-04-01T00:16:51;271.90;;;257.53;;
11039;SDS011;5573;49.592;8.662;2023-04-01T00:19:21;274.90;;;260.17;;
11039;SDS011;5573;49.592;8.662;2023-04-01T00:21:48;287.40;;;271.83;;
11039;SDS011;5573;49.592;8.662;2023-04-01T00:24:16;276.47;;;261.73;;
11039;SDS011;5573;49.592;8.662;2023-04-01T00:26:44;277.23;;;262.47;;
11039;SDS011;5573;49.592;8.662;2023-04-01T00:29:13;269.37;;;254.90;;
11039;SDS011;5573;49.592;8.662;2023-04-01T00:31:41;274.90;;;259.97;;
11039;SDS011;5573;49.592;8.662;2023-04-01T00:34:09;284.77;;;269.63;;
11039;SDS011;5573;49.592;8.662;2023-04-01T00:36:38;275.17;;;260.00;;
11039;SDS011;5573;49.592;8.662;2023-04-01T00:39:06;288.00;;;272.53;;
11039;SDS011;5573;49.592;8.662;2023-04-01T00:41:33;267.50;;;253.02;;
11039;SDS011;5573;49.592;8.662;2023-04-01T00:44:11;270.73;;;256.40;;
11039;SDS011;5573;49.592;8.662;2023-04-01T00:46:44;277.03;;;262.27;;
11039;SDS011;5573;49.592;8.662;2023-04-01T00:49:12;262.20;;;248.10;;
11039;SDS011;5573;49.592;8.662;2023-04-01T00:51:42;261.43;;;247.43;;
11039;SDS011;5573;49.592;8.662;2023-04-01T00:54:12;277.30;;;262.17;;
11039;SDS011;5573;49.592;8.662;2023-04-01T00:56:43;286.80;;;271.17;;
11039;SDS011;5573;49.592;8.662;2023-04-01T00:59:16;261.13;;;246.77;;
11039;SDS011;5573;49.592;8.662;2023-04-01T01:01:48;264.63;;;250.33;;
11039;SDS011;5573;49.592;8.662;2023-04-01T01:04:24;272.70;;;257.97;;
11039;SDS011;5573;49.592;8.662;2023-04-01T01:06:57;271.10;;;256.63;;
11039;SDS011;5573;49.592;8.662;2023-04-01T01:09:36;275.30;;;260.47;;
11039;SDS011;5573;49.592;8.662;2023-04-01T01:12:11;264.70;;;250.80;;
11039;SDS011;5573;49.592;8.662;2023-04-01T01:14:47;274.05;;;259.33;;
11039;SDS011;5573;49.592;8.662;2023-04-01T01:17:23;248.03;;;234.67;;
11039;SDS011;5573;49.592;8.662;2023-04-01T01:20:07;273.10;;;258.27;;
11039;SDS011;5573;49.592;8.662;2023-04-01T01:22:57;241.33;;;228.30;;
11039;SDS011;5573;49.592;8.662;2023-04-01T01:25:44;263.17;;;249.07;;
11039;SDS011;5573;49.592;8.662;2023-04-01T01:28:27;252.33;;;238.73;;
11039;SDS011;5573;49.592;8.662;2023-04-01T01:31:07;233.97;;;221.60;;
11039;SDS011;5573;49.592;8.662;2023-04-01T01:36:39;242.47;;;229.53;;
11039;SDS011;5573;49.592;8.662;2023-04-01T01:39:11;252.97;;;239.23;;
11039;SDS011;5573;49.592;8.662;2023-04-01T01:41:41;247.23;;;233.57;;
11039;SDS011;5573;49.592;8.662;2023-04-01T01:44:11;253.47;;;239.73;;
11039;SDS011;5573;49.592;8.662;2023-04-01T01:46:41;242.13;;;228.87;;
11039;SDS011;5573;49.592;8.662;2023-04-01T01:49:11;253.00;;;239.47;;
11039;SDS011;5573;49.592;8.662;2023-04-01T01:51:41;253.97;;;240.43;;
11039;SDS011;5573;49.592;8.662;2023-04-01T01:54:12;232.77;;;220.20;;
11039;SDS011;5573;49.592;8.662;2023-04-01T01:56:40;254.57;;;241.00;;
11039;SDS011;5573;49.592;8.662;2023-04-01T01:59:10;245.75;;;232.80;;
11039;SDS011;5573;49.592;8.662;2023-04-01T02:01:42;248.77;;;235.47;;
11039;SDS011;5573;49.592;8.662;2023-04-01T02:04:13;242.43;;;229.23;;
11039;SDS011;5573;49.592;8.662;2023-04-01T02:06:45;246.37;;;232.97;;
11039;SDS011;5573;49.592;8.662;2023-04-01T02:09:18;260.87;;;246.80;;
11039;SDS011;5573;49.592;8.662;2023-04-01T02:11:47;254.57;;;241.10;;
11039;SDS011;5573;49.592;8.662;2023-04-01T02:14:19;243.93;;;230.77;;
11039;SDS011;5573;49.592;8.662;2023-04-01T02:16:49;250.93;;;237.33;;
11039;SDS011;5573;49.592;8.662;2023-04-01T02:19:21;252.80;;;238.97;;
11039;SDS011;5573;49.592;8.662;2023-04-01T02:21:55;238.00;;;225.17;;
11039;SDS011;5573;49.592;8.662;2023-04-01T02:24:25;237.70;;;224.93;;
11039;SDS011;5573;49.592;8.662;2023-04-01T02:26:55;238.57;;;225.57;;
11039;SDS011;5573;49.592;8.662;2023-04-01T02:29:23;232.95;;;220.13;;
11039;SDS011;5573;49.592;8.662;2023-04-01T02:31:52;247.87;;;234.63;;
11039;SDS011;5573;49.592;8.662;2023-04-01T02:34:22;238.00;;;225.47;;
11039;SDS011;5573;49.592;8.662;2023-04-01T02:36:51;261.30;;;247.17;;
11039;SDS011;5573;49.592;8.662;2023-04-01T02:39:22;243.30;;;230.00;;
11039;SDS011;5573;49.592;8.662;2023-04-01T02:41:51;243.80;;;230.40;;
11039;SDS011;5573;49.592;8.662;2023-04-01T02:44:20;255.77;;;242.07;;
11039;SDS011;5573;49.592;8.662;2023-04-01T02:46:48;236.87;;;224.30;;
11039;SDS011;5573;49.592;8.662;2023-04-01T02:49:16;246.73;;;233.27;;
11039;SDS011;5573;49.592;8.662;2023-04-01T02:51:44;244.10;;;231.13;;
11039;SDS011;5573;49.592;8.662;2023-04-01T02:54:12;240.33;;;227.10;;
11039;SDS011;5573;49.592;8.662;2023-04-01T02:57:09;230.03;;;217.70;;
11039;SDS011;5573;49.592;8.662;2023-04-01T02:59:38;235.37;;;222.63;;
11039;SDS011;5573;49.592;8.662;2023-04-01T03:02:06;229.93;;;217.67;;
11039;SDS011;5573;49.592;8.662;2023-04-01T03:04:34;236.50;;;223.60;;
11039;SDS011;5573;49.592;8.662;2023-04-01T03:07:01;237.40;;;223.97;;
11039;SDS011;5573;49.592;8.662;2023-04-01T03:09:30;250.97;;;237.57;;
11039;SDS011;5573;49.592;8.662;2023-04-01T03:11:58;230.37;;;217.87;;
11039;SDS011;5573;49.592;8.662;2023-04-01T03:14:28;244.00;;;230.77;;
11039;SDS011;5573;49.592;8.662;2023-04-01T03:16:56;230.32;;;217.88;;
11039;SDS011;5573;49.592;8.662;2023-04-01T03:19:24;244.18;;;230.98;;
11039;SDS011;5573;49.592;8.662;2023-04-01T03:21:51;242.37;;;229.20;;
11039;SDS011;5573;49.592;8.662;2023-04-01T03:24:19;224.63;;;212.50;;
11039;SDS011;5573;49.592;8.662;2023-04-01T03:26:47;233.10;;;220.68;;
11039;SDS011;5573;49.592;8.662;2023-04-01T03:29:15;243.63;;;230.53;;
11039;SDS011;5573;49.592;8.662;2023-04-01T03:31:44;233.17;;;220.30;;
11039;SDS011;5573;49.592;8.662;2023-04-01T03:34:12;245.77;;;232.40;;
11039;SDS011;5573;49.592;8.662;2023-04-01T03:36:40;228.55;;;216.18;;
11039;SDS011;5573;49.592;8.662;2023-04-01T03:39:08;249.37;;;235.87;;
11039;SDS011;5573;49.592;8.662;2023-04-01T03:41:40;244.87;;;231.67;;
11039;SDS011;5573;49.592;8.662;2023-04-01T03:44:08;249.20;;;235.77;;
11039;SDS011;5573;49.592;8.662;2023-04-01T03:46:35;251.10;;;237.80;;
11039;SDS011;5573;49.592;8.662;2023-04-01T03:49:07;257.33;;;243.17;;
11039;SDS011;5573;49.592;8.662;2023-04-01T03:51:37;257.47;;;243.40;;
11039;SDS011;5573;49.592;8.662;2023-04-01T03:54:05;238.37;;;225.97;;
11039;SDS011;5573;49.592;8.662;2023-04-01T03:56:34;243.80;;;230.47;;
11039;SDS011;5573;49.592;8.662;2023-04-01T03:59:02;260.10;;;246.03;;
11039;SDS011;5573;49.592;8.662;2023-04-01T04:01:31;250.63;;;237.20;;
11039;SDS011;5573;49.592;8.662;2023-04-01T04:03:59;254.80;;;240.93;;
11039;SDS011;5573;49.592;8.662;2023-04-01T04:06:28;254.57;;;240.70;;
11039;SDS011;5573;49.592;8.662;2023-04-01T04:08:56;235.87;;;222.87;;
11039;SDS011;5573;49.592;8.662;2023-04-01T04:11:25;252.07;;;238.43;;
11039;SDS011;5573;49.592;8.662;2023-04-01T04:13:53;239.00;;;225.50;;
11039;SDS011;5573;49.592;8.662;2023-04-01T04:16:23;249.80;;;236.43;;
11039;SDS011;5573;49.592;8.662;2023-04-01T04:19:00;243.73;;;230.53;;
11039;SDS011;5573;49.592;8.662;2023-04-01T04:21:29;247.70;;;234.33;;
11039;SDS011;5573;49.592;8.662;2023-04-01T04:23:58;254.43;;;240.87;;
11039;SDS011;5573;49.592;8.662;2023-04-01T04:26:35;242.87;;;230.00;;
11039;SDS011;5573;49.592;8.662;2023-04-01T04:29:03;236.40;;;223.67;;
11039;SDS011;5573;49.592;8.662;2023-04-01T04:31:31;239.30;;;226.63;;
11039;SDS011;5573;49.592;8.662;2023-04-01T04:33:59;240.77;;;227.97;;
11039;SDS011;5573;49.592;8.662;2023-04-01T04:36:33;233.03;;;220.47;;
11039;SDS011;5573;49.592;8.662;2023-04-01T04:39:01;233.13;;;220.80;;
11039;SDS011;5573;49.592;8.662;2023-04-01T04:41:31;226.27;;;213.83;;
11039;SDS011;5573;49.592;8.662;2023-04-01T04:44:02;234.73;;;222.13;;
11039;SDS011;5573;49.592;8.662;2023-04-01T04:46:31;228.60;;;215.97;;
11039;SDS011;5573;49.592;8.662;2023-04-01T04:49:09;249.63;;;235.90;;
11039;SDS011;5573;49.592;8.662;2023-04-01T04:51:38;230.90;;;218.67;;
11039;SDS011;5573;49.592;8.662;2023-04-01T04:54:07;249.37;;;235.90;;
11039;SDS011;5573;49.592;8.662;2023-04-01T04:56:48;223.48;;;211.65;;
11039;SDS011;5573;49.592;8.662;2023-04-01T04:59:15;237.63;;;224.87;;
11039;SDS011;5573;49.592;8.662;2023-04-01T05:01:50;231.37;;;218.90;;
11039;SDS011;5573;49.592;8.662;2023-04-01T05:04:18;236.43;;;223.63;;
11039;SDS011;5573;49.592;8.662;2023-04-01T05:06:47;259.43;;;245.27;;
11039;SDS011;5573;49.592;8.662;2023-04-01T05:09:16;247.40;;;234.33;;
11039;SDS011;5573;49.592;8.662;2023-04-01T05:11:44;245.40;;;232.50;;
11039;SDS011;5573;49.592;8.662;2023-04-01T05:14:13;241.47;;;228.27;;
11039;SDS011;5573;49.592;8.662;2023-04-01T05:16:45;246.70;;;233.10;;
11039;SDS011;5573;49.592;8.662;2023-04-01T05:19:13;263.20;;;249.17;;
11039;SDS011;5573;49.592;8.662;2023-04-01T05:21:41;248.13;;;235.03;;
11039;SDS011;5573;49.592;8.662;2023-04-01T05:24:10;243.53;;;230.47;;
11039;SDS011;5573;49.592;8.662;2023-04-01T05:26:38;255.67;;;242.07;;
11039;SDS011;5573;49.592;8.662;2023-04-01T05:29:06;254.73;;;241.10;;
11039;SDS011;5573;49.592;8.662;2023-04-01T05:31:34;256.67;;;242.90;;
11039;SDS011;5573;49.592;8.662;2023-04-01T05:34:03;254.77;;;241.10;;
11039;SDS011;5573;49.592;8.662;2023-04-01T05:36:31;257.43;;;243.47;;
11039;SDS011;5573;49.592;8.662;2023-04-01T05:38:59;258.90;;;245.07;;
11039;SDS011;5573;49.592;8.662;2023-04-01T05:41:29;262.13;;;248.27;;
11039;SDS011;5573;49.592;8.662;2023-04-01T05:43:56;279.70;;;264.63;;
11039;SDS011;5573;49.592;8.662;2023-04-01T05:46:39;248.00;;;234.70;;
11039;SDS011;5573;49.592;8.662;2023-04-01T05:49:26;248.43;;;234.77;;
11039;SDS011;5573;49.592;8.662;2023-04-01T05:51:54;267.43;;;252.87;;
11039;SDS011;5573;49.592;8.662;2023-04-01T05:54:23;257.77;;;244.00;;
11039;SDS011;5573;49.592;8.662;2023-04-01T05:56:52;272.50;;;257.73;;
11039;SDS011;5573;49.592;8.662;2023-04-01T05:59:19;268.63;;;254.43;;
11039;SDS011;5573;49.592;8.662;2023-04-01T06:01:47;267.50;;;253.20;;
11039;SDS011;5573;49.592;8.662;2023-04-01T06:04:16;265.10;;;250.97;;
11039;SDS011;5573;49.592;8.662;2023-04-01T06:06:45;288.03;;;272.43;;
11039;SDS011;5573;49.592;8.662;2023-04-01T06:09:14;262.00;;;248.23;;
11039;SDS011;5573;49.592;8.662;2023-04-01T06:12:00;259.73;;;245.53;;
11039;SDS011;5573;49.592;8.662;2023-04-01T06:14:52;248.10;;;234.87;;
11039;SDS011;5573;49.592;8.662;2023-04-01T06:17:39;254.87;;;241.43;;
11039;SDS011;5573;49.592;8.662;2023-04-01T06:20:17;248.17;;;234.70;;
11039;SDS011;5573;49.592;8.662;2023-04-01T06:22:57;252.33;;;238.53;;
11039;SDS011;5573;49.592;8.662;2023-04-01T06:25:38;254.07;;;240.60;;
11039;SDS011;5573;49.592;8.662;2023-04-01T06:31:47;242.17;;;229.50;;
11039;SDS011;5573;49.592;8.662;2023-04-01T06:34:35;254.17;;;240.73;;
11039;SDS011;5573;49.592;8.662;2023-04-01T06:37:19;257.50;;;243.50;;
11039;SDS011;5573;49.592;8.662;2023-04-01T06:40:12;265.17;;;250.70;;
11039;SDS011;5573;49.592;8.662;2023-04-01T06:42:57;253.53;;;239.87;;
11039;SDS011;5573;49.592;8.662;2023-04-01T06:45:55;253.20;;;239.93;;
11039;SDS011;5573;49.592;8.662;2023-04-01T06:48:53;258.77;;;244.77;;
11039;SDS011;5573;49.592;8.662;2023-04-01T06:51:52;257.20;;;243.37;;
11039;SDS011;5573;49.592;8.662;2023-04-01T06:54:47;258.00;;;244.63;;
11039;SDS011;5573;49.592;8.662;2023-04-01T06:57:38;259.17;;;245.23;;
11039;SDS011;5573;49.592;8.662;2023-04-01T07:00:12;261.63;;;247.43;;
11039;SDS011;5573;49.592;8.662;2023-04-01T07:02:49;270.73;;;256.33;;
11039;SDS011;5573;49.592;8.662;2023-04-01T07:05:24;260.20;;;246.07;;
11039;SDS011;5573;49.592;8.662;2023-04-01T07:07:55;270.13;;;255.63;;
11039;SDS011;5573;49.592;8.662;2023-04-01T07:10:30;266.50;;;252.60;;
11039;SDS011;5573;49.592;8.662;2023-04-01T07:13:22;271.50;;;257.03;;
11039;SDS011;5573;49.592;8.662;2023-04-01T07:15:59;264.77;;;250.53;;
11039;SDS011;5573;49.592;8.662;2023-04-01T07:18:44;257.70;;;243.83;;
11039;SDS011;5573;49.592;8.662;2023-04-01T07:21:22;267.03;;;252.63;;
11039;SDS011;5573;49.592;8.662;2023-04-01T07:23:59;267.10;;;252.50;;
11039;SDS011;5573;49.592;8.662;2023-04-01T07:26:39;263.77;;;249.27;;
11039;SDS011;5573;49.592;8.662;2023-04-01T07:29:13;269.07;;;254.80;;
11039;SDS011;5573;49.592;8.662;2023-04-01T07:32:05;261.17;;;247.20;;
11039;SDS011;5573;49.592;8.662;2023-04-01T07:34:44;256.43;;;242.83;;
11039;SDS011;5573;49.592;8.662;2023-04-01T07:37:21;265.23;;;251.23;;
11039;SDS011;5573;49.592;8.662;2023-04-01T07:39:57;275.53;;;260.93;;
11039;SDS011;5573;49.592;8.662;2023-04-01T07:42:41;276.83;;;262.03;;
11039;SDS011;5573;49.592;8.662;2023-04-01T07:45:21;264.77;;;250.37;;
11039;SDS011;5573;49.592;8.662;2023-04-01T07:48:01;284.70;;;269.33;;
11039;SDS011;5573;49.592;8.662;2023-04-01T07:50:40;260.73;;;246.83;;
11039;SDS011;5573;49.592;8.662;2023-04-01T07:53:16;253.53;;;239.73;;
11039;SDS011;5573;49.592;8.662;2023-04-01T07:55:57;259.47;;;245.60;;
11039;SDS011;5573;49.592;8.662;2023-04-01T07:58:36;259.13;;;245.47;;
11039;SDS011;5573;49.592;8.662;2023-04-01T08:01:23;247.50;;;234.40;;
11039;SDS011;5573;49.592;8.662;2023-04-01T08:04:04;266.10;;;251.77;;
11039;SDS011;5573;49.592;8.662;2023-04-01T08:06:57;266.80;;;252.37;;
11039;SDS011;5573;49.592;8.662;2023-04-01T08:10:19;257.23;;;243.47;;
11039;SDS011;5573;49.592;8.662;2023-04-01T08:13:13;238.50;;;225.97;;
11039;SDS011;5573;49.592;8.662;2023-04-01T08:16:15;245.73;;;232.73;;
11039;SDS011;5573;49.592;8.662;2023-04-01T08:18:53;255.80;;;242.17;;
11039;SDS011;5573;49.592;8.662;2023-04-01T08:21:28;277.20;;;262.30;;
11039;SDS011;5573;49.592;8.662;2023-04-01T08:24:06;249.23;;;236.17;;
11039;SDS011;5573;49.592;8.662;2023-04-01T08:26:48;248.90;;;235.40;;
11039;SDS011;5573;49.592;8.662;2023-04-01T08:29:22;230.57;;;218.13;;
11039;SDS011;5573;49.592;8.662;2023-04-01T08:31:54;251.43;;;238.00;;
11039;SDS011;5573;49.592;8.662;2023-04-01T08:34:26;250.03;;;236.43;;
11039;SDS011;5573;49.592;8.662;2023-04-01T08:36:59;241.13;;;228.17;;
11039;SDS011;5573;49.592;8.662;2023-04-01T08:39:34;234.93;;;221.90;;
11039;SDS011;5573;49.592;8.662;2023-04-01T08:51:19;216.37;;;204.70;;
11039;SDS011;5573;49.592;8.662;2023-04-01T08:54:12;204.67;;;193.33;;
11039;SDS011;5573;49.592;8.662;2023-04-01T08:56:59;205.90;;;194.43;;
11039;SDS011;5573;49.592;8.662;2023-04-01T08:59:39;214.37;;;202.67;;
11039;SDS011;5573;49.592;8.662;2023-04-01T09:02:45;199.93;;;189.03;;
11039;SDS011;5573;49.592;8.662;2023-04-01T09:08:31;195.53;;;184.47;;
11039;SDS011;5573;49.592;8.662;2023-04-01T09:11:17;227.30;;;214.87;;
11039;SDS011;5573;49.592;8.662;2023-04-01T09:14:04;210.77;;;199.30;;
11039;SDS011;5573;49.592;8.662;2023-04-01T09:16:55;232.43;;;219.73;;
11039;SDS011;5573;49.592;8.662;2023-04-01T09:19:40;231.30;;;218.97;;
11039;SDS011;5573;49.592;8.662;2023-04-01T09:22:20;234.63;;;221.77;;
11039;SDS011;5573;49.592;8.662;2023-04-01T09:25:08;240.53;;;227.40;;
11039;SDS011;5573;49.592;8.662;2023-04-01T09:27:53;235.73;;;222.97;;
11039;SDS011;5573;49.592;8.662;2023-04-01T09:33:33;220.53;;;208.67;;
11039;SDS011;5573;49.592;8.662;2023-04-01T09:36:36;210.80;;;199.33;;
11039;SDS011;5573;49.592;8.662;2023-04-01T09:39:16;224.40;;;212.30;;
11039;SDS011;5573;49.592;8.662;2023-04-01T09:41:57;222.60;;;210.40;;
11039;SDS011;5573;49.592;8.662;2023-04-01T09:44:40;249.20;;;235.53;;
11039;SDS011;5573;49.592;8.662;2023-04-01T09:47:20;236.80;;;224.17;;
11039;SDS011;5573;49.592;8.662;2023-04-01T09:49:59;237.17;;;224.33;;
11039;SDS011;5573;49.592;8.662;2023-04-01T09:52:45;237.43;;;224.57;;
11039;SDS011;5573;49.592;8.662;2023-04-01T09:55:31;233.97;;;221.20;;
11039;SDS011;5573;49.592;8.662;2023-04-01T09:58:27;220.07;;;208.17;;
11039;SDS011;5573;49.592;8.662;2023-04-01T10:04:43;240.77;;;228.10;;
11039;SDS011;5573;49.592;8.662;2023-04-01T10:10:42;235.20;;;222.07;;
11039;SDS011;5573;49.592;8.662;2023-04-01T10:16:34;233.30;;;220.63;;
11039;SDS011;5573;49.592;8.662;2023-04-01T10:22:37;236.23;;;223.47;;
11039;SDS011;5573;49.592;8.662;2023-04-01T10:25:29;234.87;;;222.13;;
11039;SDS011;5573;49.592;8.662;2023-04-01T10:28:24;248.70;;;235.33;;
11039;SDS011;5573;49.592;8.662;2023-04-01T10:34:37;246.30;;;232.80;;
11039;SDS011;5573;49.592;8.662;2023-04-01T10:37:36;247.07;;;233.63;;
11039;SDS011;5573;49.592;8.662;2023-04-01T10:50:15;250.30;;;236.67;;
11039;SDS011;5573;49.592;8.662;2023-04-01T10:53:15;242.77;;;229.38;;
11039;SDS011;5573;49.592;8.662;2023-04-01T10:56:33;249.77;;;236.40;;
11039;SDS011;5573;49.592;8.662;2023-04-01T10:59:28;249.40;;;235.93;;
11039;SDS011;5573;49.592;8.662;2023-04-01T11:09:03;249.17;;;235.77;;
11039;SDS011;5573;49.592;8.662;2023-04-01T11:11:53;266.53;;;252.33;;
11039;SDS011;5573;49.592;8.662;2023-04-01T11:24:43;271.27;;;256.63;;
11039;SDS011;5573;49.592;8.662;2023-04-01T11:27:42;253.00;;;239.20;;
11039;SDS011;5573;49.592;8.662;2023-04-01T11:33:18;298.90;;;282.20;;
11039;SDS011;5573;49.592;8.662;2023-04-01T11:36:02;293.47;;;276.93;;
11039;SDS011;5573;49.592;8.662;2023-04-01T11:38:48;294.07;;;277.57;;
11039;SDS011;5573;49.592;8.662;2023-04-01T11:42:10;266.70;;;251.83;;
11039;SDS011;5573;49.592;8.662;2023-04-01T11:45:16;258.10;;;243.47;;
11039;SDS011;5573;49.592;8.662;2023-04-01T11:47:55;296.40;;;279.47;;
11039;SDS011;5573;49.592;8.662;2023-04-01T11:50:38;274.17;;;258.63;;
11039;SDS011;5573;49.592;8.662;2023-04-01T11:53:23;269.77;;;255.03;;
11039;SDS011;5573;49.592;8.662;2023-04-01T11:56:06;278.87;;;263.27;;
11039;SDS011;5573;49.592;8.662;2023-04-01T12:01:54;286.17;;;269.93;;
11039;SDS011;5573;49.592;8.662;2023-04-01T12:04:34;262.60;;;248.30;;
11039;SDS011;5573;49.592;8.662;2023-04-01T12:07:14;295.77;;;278.87;;
11039;SDS011;5573;49.592;8.662;2023-04-01T12:09:49;271.77;;;256.53;;
11039;SDS011;5573;49.592;8.662;2023-04-01T12:12:29;276.93;;;261.57;;
11039;SDS011;5573;49.592;8.662;2023-04-01T12:15:12;268.40;;;253.53;;
11039;SDS011;5573;49.592;8.662;2023-04-01T12:17:50;275.57;;;259.97;;
11039;SDS011;5573;49.592;8.662;2023-04-01T12:20:34;310.87;;;293.20;;
11039;SDS011;5573;49.592;8.662;2023-04-01T12:23:12;268.90;;;253.10;;
11039;SDS011;5573;49.592;8.662;2023-04-01T12:25:55;288.23;;;271.90;;
11039;SDS011;5573;49.592;8.662;2023-04-01T12:28:41;296.60;;;279.90;;
11039;SDS011;5573;49.592;8.662;2023-04-01T12:31:26;280.05;;;264.08;;
11039;SDS011;5573;49.592;8.662;2023-04-01T12:37:03;273.60;;;258.05;;
11039;SDS011;5573;49.592;8.662;2023-04-01T12:39:39;292.55;;;275.80;;
11039;SDS011;5573;49.592;8.662;2023-04-01T12:42:22;278.88;;;262.88;;
11039;SDS011;5573;49.592;8.662;2023-04-01T12:45:11;311.23;;;294.25;;
11039;SDS011;5573;49.592;8.662;2023-04-01T12:48:06;293.87;;;277.43;;
11039;SDS011;5573;49.592;8.662;2023-04-01T12:51:03;278.98;;;263.58;;
11039;SDS011;5573;49.592;8.662;2023-04-01T12:53:54;300.73;;;283.85;;
11039;SDS011;5573;49.592;8.662;2023-04-01T12:56:44;294.90;;;278.67;;
11039;SDS011;5573;49.592;8.662;2023-04-01T12:59:24;286.13;;;270.17;;
11039;SDS011;5573;49.592;8.662;2023-04-01T13:02:12;278.15;;;262.33;;
11039;SDS011;5573;49.592;8.662;2023-04-01T13:04:54;295.70;;;278.83;;
11039;SDS011;5573;49.592;8.662;2023-04-01T13:10:38;265.10;;;250.40;;
11039;SDS011;5573;49.592;8.662;2023-04-01T13:13:25;273.88;;;258.83;;
11039;SDS011;5573;49.592;8.662;2023-04-01T13:16:02;301.70;;;284.80;;
11039;SDS011;5573;49.592;8.662;2023-04-01T13:18:39;281.33;;;265.77;;
11039;SDS011;5573;49.592;8.662;2023-04-01T13:21:25;285.17;;;269.38;;
11039;SDS011;5573;49.592;8.662;2023-04-01T13:24:02;292.98;;;276.60;;
11039;SDS011;5573;49.592;8.662;2023-04-01T13:26:39;296.17;;;280.08;;
11039;SDS011;5573;49.592;8.662;2023-04-01T13:29:19;291.85;;;275.75;;
11039;SDS011;5573;49.592;8.662;2023-04-01T13:31:59;280.65;;;265.17;;
11039;SDS011;5573;49.592;8.662;2023-04-01T13:34:42;289.70;;;273.85;;
11039;SDS011;5573;49.592;8.662;2023-04-01T13:37:26;296.98;;;280.85;;
11039;SDS011;5573;49.592;8.662;2023-04-01T13:40:04;275.02;;;260.17;;
11039;SDS011;5573;49.592;8.662;2023-04-01T13:42:46;263.48;;;249.18;;
11039;SDS011;5573;49.592;8.662;2023-04-01T13:45:21;284.85;;;269.25;;
11039;SDS011;5573;49.592;8.662;2023-04-01T13:54:20;237.85;;;224.85;;
11039;SDS011;5573;49.592;8.662;2023-04-01T13:57:03;270.10;;;255.55;;
11039;SDS011;5573;49.592;8.662;2023-04-01T14:02:50;266.45;;;251.82;;
11039;SDS011;5573;49.592;8.662;2023-04-01T14:08:53;262.15;;;247.88;;
11039;SDS011;5573;49.592;8.662;2023-04-01T14:11:31;262.33;;;248.02;;
11039;SDS011;5573;49.592;8.662;2023-04-01T14:14:08;249.75;;;236.38;;
11039;SDS011;5573;49.592;8.662;2023-04-01T14:16:55;257.83;;;243.90;;
11039;SDS011;5573;49.592;8.662;2023-04-01T14:19:42;260.10;;;245.93;;
11039;SDS011;5573;49.592;8.662;2023-04-01T14:22:23;266.83;;;252.30;;
11039;SDS011;5573;49.592;8.662;2023-04-01T14:25:04;264.60;;;250.20;;
11039;SDS011;5573;49.592;8.662;2023-04-01T14:27:55;264.17;;;249.77;;
11039;SDS011;5573;49.592;8.662;2023-04-01T14:30:40;257.67;;;243.75;;
11039;SDS011;5573;49.592;8.662;2023-04-01T14:33:20;255.95;;;242.25;;
11039;SDS011;5573;49.592;8.662;2023-04-01T14:35:56;267.77;;;253.18;;
11039;SDS011;5573;49.592;8.662;2023-04-01T14:38:45;250.38;;;236.70;;
11039;SDS011;5573;49.592;8.662;2023-04-01T14:41:27;264.08;;;249.63;;
11039;SDS011;5573;49.592;8.662;2023-04-01T14:44:14;258.88;;;245.05;;
11039;SDS011;5573;49.592;8.662;2023-04-01T14:47:04;262.92;;;248.82;;
11039;SDS011;5573;49.592;8.662;2023-04-01T14:49:52;246.60;;;233.23;;
11039;SDS011;5573;49.592;8.662;2023-04-01T14:52:23;274.65;;;259.45;;
11039;SDS011;5573;49.592;8.662;2023-04-01T14:54:55;253.48;;;239.55;;
11039;SDS011;5573;49.592;8.662;2023-04-01T14:57:27;281.17;;;266.00;;
11039;SDS011;5573;49.592;8.662;2023-04-01T14:59:59;263.15;;;249.00;;
11039;SDS011;5573;49.592;8.662;2023-04-01T15:02:42;258.13;;;244.30;;
11039;SDS011;5573;49.592;8.662;2023-04-01T15:05:24;257.15;;;243.35;;
11039;SDS011;5573;49.592;8.662;2023-04-01T15:08:10;254.93;;;241.23;;
11039;SDS011;5573;49.592;8.662;2023-04-01T15:10:46;273.75;;;259.58;;
11039;SDS011;5573;49.592;8.662;2023-04-01T15:16:44;268.10;;;253.70;;
11039;SDS011;5573;49.592;8.662;2023-04-01T15:19:24;252.25;;;239.00;;
11039;SDS011;5573;49.592;8.662;2023-04-01T15:22:12;249.57;;;236.20;;
11039;SDS011;5573;49.592;8.662;2023-04-01T15:24:56;252.35;;;238.90;;
11039;SDS011;5573;49.592;8.662;2023-04-01T15:27:35;254.10;;;240.50;;
11039;SDS011;5573;49.592;8.662;2023-04-01T15:30:15;254.27;;;240.85;;
11039;SDS011;5573;49.592;8.662;2023-04-01T15:32:56;252.52;;;238.77;;
11039;SDS011;5573;49.592;8.662;2023-04-01T15:35:37;259.60;;;245.70;;
11039;SDS011;5573;49.592;8.662;2023-04-01T15:38:10;267.00;;;252.35;;
11039;SDS011;5573;49.592;8.662;2023-04-01T15:40:53;259.65;;;246.02;;
11039;SDS011;5573;49.592;8.662;2023-04-01T15:43:31;261.08;;;246.88;;
11039;SDS011;5573;49.592;8.662;2023-04-01T15:49:25;246.45;;;233.00;;
11039;SDS011;5573;49.592;8.662;2023-04-01T15:52:10;236.15;;;223.25;;
11039;SDS011;5573;49.592;8.662;2023-04-01T15:54:56;249.68;;;236.25;;
11039;SDS011;5573;49.592;8.662;2023-04-01T15:57:47;259.67;;;245.83;;
11039;SDS011;5573;49.592;8.662;2023-04-01T16:00:29;261.75;;;247.85;;
11039;SDS011;5573;49.592;8.662;2023-04-01T16:05:57;261.38;;;247.18;;
11039;SDS011;5573;49.592;8.662;2023-04-01T16:08:53;268.90;;;253.90;;
11039;SDS011;5573;49.592;8.662;2023-04-01T16:11:31;276.13;;;261.13;;
11039;SDS011;5573;49.592;8.662;2023-04-01T16:14:11;257.33;;;243.27;;
11039;SDS011;5573;49.592;8.662;2023-04-01T16:16:52;257.57;;;243.30;;
11039;SDS011;5573;49.592;8.662;2023-04-01T16:19:30;255.68;;;242.02;;
11039;SDS011;5573;49.592;8.662;2023-04-01T16:22:07;271.38;;;256.73;;
11039;SDS011;5573;49.592;8.662;2023-04-01T16:24:40;269.20;;;254.43;;
11039;SDS011;5573;49.592;8.662;2023-04-01T16:27:13;273.67;;;259.23;;
11039;SDS011;5573;49.592;8.662;2023-04-01T16:29:46;295.83;;;279.63;;
11039;SDS011;5573;49.592;8.662;2023-04-01T16:32:21;283.10;;;267.83;;
11039;SDS011;5573;49.592;8.662;2023-04-01T16:35:03;280.10;;;265.17;;
11039;SDS011;5573;49.592;8.662;2023-04-01T16:37:45;279.53;;;264.60;;
11039;SDS011;5573;49.592;8.662;2023-04-01T16:40:20;289.83;;;274.35;;
11039;SDS011;5573;49.592;8.662;2023-04-01T16:43:05;280.70;;;265.60;;
11039;SDS011;5573;49.592;8.662;2023-04-01T16:45:38;280.67;;;265.57;;
11039;SDS011;5573;49.592;8.662;2023-04-01T16:48:12;294.73;;;278.53;;
11039;SDS011;5573;49.592;8.662;2023-04-01T16:50:53;284.77;;;269.17;;